createdAt,value
2023-04-20T00:00:59.747Z,10.43
2023-04-20T00:03:26.708Z,9.50
2023-04-20T00:05:53.641Z,10.20
2023-04-20T00:08:20.416Z,10.00
2023-04-20T00:10:47.049Z,13.73
2023-04-20T00:13:13.714Z,12.65
2023-04-20T00:15:40.410Z,13.35
2023-04-20T00:18:07.230Z,12.73
2023-04-20T00:20:35.120Z,10.00
2023-04-20T00:23:01.927Z,10.00
2023-04-20T00:25:29.643Z,10.35
2023-04-20T00:27:56.905Z,10.95
2023-04-20T00:30:23.718Z,11.93
2023-04-20T00:32:50.347Z,10.20
2023-04-20T00:35:17.175Z,9.85
2023-04-20T00:37:44.316Z,9.90
2023-04-20T00:40:11.426Z,9.75
2023-04-20T00:42:40.595Z,10.80
2023-04-20T00:45:07.906Z,10.73
2023-04-20T00:47:34.628Z,10.93
2023-04-20T00:50:02.569Z,10.75
2023-04-20T00:52:31.074Z,9.98
2023-04-20T00:54:58.549Z,10.23
2023-04-20T00:57:26.809Z,9.40
2023-04-20T00:59:53.379Z,9.13
2023-04-20T01:02:22.695Z,9.57
2023-04-20T01:04:49.540Z,9.40
2023-04-20T01:07:16.364Z,10.10
2023-04-20T01:09:43.062Z,10.13
2023-04-20T01:12:10.476Z,10.27
2023-04-20T01:14:37.352Z,10.30
2023-04-20T01:17:04.577Z,11.23
2023-04-20T01:19:31.905Z,10.60
2023-04-20T01:21:58.550Z,10.73
2023-04-20T01:24:25.199Z,10.60
2023-04-20T01:26:51.823Z,10.35
2023-04-20T01:29:18.611Z,9.77
2023-04-20T01:31:45.340Z,11.10
2023-04-20T01:34:11.955Z,10.67
2023-04-20T01:36:38.719Z,11.60
2023-04-20T01:39:07.151Z,10.40
2023-04-20T01:41:33.889Z,11.38
2023-04-20T01:44:00.647Z,10.95
2023-04-20T01:46:27.303Z,11.37
2023-04-20T01:48:53.899Z,10.52
2023-04-20T01:51:20.623Z,11.30
2023-04-20T01:53:47.165Z,11.02
2023-04-20T01:56:13.805Z,10.85
2023-04-20T01:58:40.546Z,11.20
2023-04-20T02:01:07.352Z,11.02
2023-04-20T02:03:34.297Z,10.93
2023-04-20T02:06:01.078Z,11.45
2023-04-20T02:08:29.849Z,11.07
2023-04-20T02:10:56.416Z,11.10
2023-04-20T02:13:23.039Z,11.77
2023-04-20T02:15:49.767Z,11.73
2023-04-20T02:18:16.383Z,10.52
2023-04-20T02:20:44.353Z,10.30
2023-04-20T02:23:11.283Z,10.43
2023-04-20T02:25:38.507Z,10.77
2023-04-20T02:28:05.577Z,10.90
2023-04-20T02:30:32.176Z,10.60
2023-04-20T02:32:59.299Z,11.32
2023-04-20T02:35:26.244Z,11.63
2023-04-20T02:37:52.819Z,11.10
2023-04-20T02:40:19.493Z,10.77
2023-04-20T02:42:46.261Z,11.40
2023-04-20T02:45:12.904Z,10.23
2023-04-20T02:47:42.206Z,11.33
2023-04-20T02:50:11.094Z,10.57
2023-04-20T02:52:54.837Z,9.95
2023-04-20T02:55:21.593Z,11.15
2023-04-20T02:57:51.829Z,11.95
2023-04-20T03:00:19.669Z,11.00
2023-04-20T03:03:00.220Z,11.52
2023-04-20T03:05:27.179Z,11.38
2023-04-20T03:07:53.920Z,11.77
2023-04-20T03:10:20.730Z,12.00
2023-04-20T03:12:56.843Z,10.37
2023-04-20T03:15:40.965Z,12.02
2023-04-20T03:18:18.912Z,12.27
2023-04-20T03:20:45.506Z,12.23
2023-04-20T03:23:12.153Z,12.07
2023-04-20T03:25:38.785Z,11.83
2023-04-20T03:28:10.323Z,11.02
2023-04-20T03:30:39.106Z,11.80
2023-04-20T03:33:12.434Z,12.40
2023-04-20T03:35:39.478Z,13.38
2023-04-20T03:38:06.560Z,13.60
2023-04-20T03:40:33.182Z,13.30
2023-04-20T03:42:59.786Z,13.95
2023-04-20T03:45:28.257Z,13.35
2023-04-20T03:47:54.919Z,13.93
2023-04-20T03:50:22.104Z,14.40
2023-04-20T03:52:49.297Z,13.98
2023-04-20T03:55:16.094Z,13.35
2023-04-20T03:57:48.407Z,13.85
2023-04-20T04:00:16.304Z,14.00
2023-04-20T04:02:46.362Z,14.27
2023-04-20T04:05:17.031Z,15.07
2023-04-20T04:07:43.672Z,13.77
2023-04-20T04:10:11.904Z,13.30
2023-04-20T04:12:38.776Z,12.88
2023-04-20T04:15:06.168Z,13.60
2023-04-20T04:17:36.116Z,12.15
2023-04-20T04:20:05.001Z,12.93
2023-04-20T04:22:31.800Z,12.23
2023-04-20T04:25:18.523Z,12.73
2023-04-20T04:27:46.367Z,13.73
2023-04-20T04:30:13.599Z,13.38
2023-04-20T04:32:41.774Z,12.05
2023-04-20T04:35:08.729Z,12.65
2023-04-20T04:37:35.333Z,12.90
2023-04-20T04:40:03.767Z,11.73
2023-04-20T04:42:35.607Z,11.38
2023-04-20T04:45:04.913Z,11.85
2023-04-20T04:47:38.851Z,11.45
2023-04-20T04:50:09.236Z,10.50
2023-04-20T04:52:36.363Z,11.60
2023-04-20T04:55:03.926Z,11.68
2023-04-20T04:57:30.586Z,11.38
2023-04-20T04:59:57.212Z,9.02
2023-04-20T05:02:23.975Z,10.23
2023-04-20T05:04:50.927Z,11.17
2023-04-20T05:07:17.542Z,11.80
2023-04-20T05:09:44.262Z,11.13
2023-04-20T05:12:10.859Z,11.93
2023-04-20T05:14:37.540Z,10.25
2023-04-20T05:17:04.465Z,12.13
2023-04-20T05:19:31.137Z,12.85
2023-04-20T05:21:57.703Z,13.73
2023-04-20T05:24:24.426Z,10.73
2023-04-20T05:26:50.941Z,12.98
2023-04-20T05:29:18.596Z,12.50
2023-04-20T05:31:45.467Z,11.77
2023-04-20T05:34:12.080Z,14.07
2023-04-20T05:36:39.857Z,13.95
2023-04-20T05:39:06.544Z,9.88
2023-04-20T05:41:33.184Z,9.30
2023-04-20T05:43:59.761Z,13.10
2023-04-20T05:46:26.527Z,14.55
2023-04-20T05:48:53.260Z,11.95
2023-04-20T05:51:19.938Z,15.07
2023-04-20T05:53:46.608Z,11.50
2023-04-20T05:56:14.682Z,12.50
2023-04-20T05:58:41.452Z,12.50
2023-04-20T06:01:08.011Z,14.10
2023-04-20T06:03:34.832Z,14.63
2023-04-20T06:06:01.666Z,14.23
2023-04-20T06:08:28.272Z,14.52
2023-04-20T06:10:58.208Z,15.98
2023-04-20T06:13:25.070Z,12.55
2023-04-20T06:15:52.801Z,13.57
2023-04-20T06:18:19.923Z,15.50
2023-04-20T06:20:46.912Z,11.00
2023-04-20T06:23:13.624Z,11.32
2023-04-20T06:25:40.343Z,12.52
2023-04-20T06:28:07.171Z,11.32
2023-04-20T06:30:34.549Z,11.23
2023-04-20T06:33:01.965Z,13.73
2023-04-20T06:35:28.931Z,10.95
2023-04-20T06:37:58.377Z,12.32
2023-04-20T06:40:29.197Z,14.23
2023-04-20T06:42:55.785Z,8.73
2023-04-20T06:45:22.604Z,11.07
2023-04-20T06:47:49.266Z,13.20
2023-04-20T06:50:16.103Z,13.00
2023-04-20T06:52:42.843Z,10.85
2023-04-20T06:55:09.902Z,10.67
2023-04-20T06:57:38.634Z,8.82
2023-04-20T07:00:08.500Z,10.35
2023-04-20T07:02:51.406Z,8.80
2023-04-20T07:05:18.716Z,11.82
2023-04-20T07:07:45.614Z,9.87
2023-04-20T07:10:14.443Z,9.65
2023-04-20T07:12:43.529Z,10.70
2023-04-20T07:15:11.249Z,10.20
2023-04-20T07:17:37.877Z,11.23
2023-04-20T07:20:08.525Z,10.10
2023-04-20T07:22:36.333Z,12.73
2023-04-20T07:25:05.439Z,12.25
2023-04-20T07:27:35.930Z,12.85
2023-04-20T07:30:03.057Z,9.32
2023-04-20T07:32:29.793Z,13.00
2023-04-20T07:34:56.659Z,9.73
2023-04-20T07:37:24.651Z,11.07
2023-04-20T07:39:53.151Z,8.13
2023-04-20T07:42:22.874Z,8.07
2023-04-20T07:44:49.581Z,8.87
2023-04-20T07:47:16.354Z,8.88
2023-04-20T07:49:43.822Z,8.07
2023-04-20T07:52:17.088Z,9.00
2023-04-20T07:54:46.989Z,11.25
2023-04-20T07:57:13.673Z,10.13
2023-04-20T07:59:40.809Z,11.75
2023-04-20T08:02:08.657Z,11.63
2023-04-20T08:04:39.002Z,10.52
2023-04-20T08:07:05.874Z,10.57
2023-04-20T08:09:32.592Z,9.40
2023-04-20T08:12:00.247Z,9.75
2023-04-20T08:14:27.232Z,9.70
2023-04-20T08:16:53.983Z,9.85
2023-04-20T08:19:20.675Z,7.00
2023-04-20T08:21:47.243Z,10.30
2023-04-20T08:24:14.087Z,8.68
2023-04-20T08:26:40.851Z,12.32
2023-04-20T08:29:07.517Z,10.25
2023-04-20T08:31:34.308Z,9.85
2023-04-20T08:34:01.138Z,10.70
2023-04-20T08:36:28.129Z,8.73
2023-04-20T08:39:09.329Z,10.32
2023-04-20T08:41:36.486Z,11.02
2023-04-20T08:44:03.976Z,13.30
2023-04-20T08:46:33.897Z,8.53
2023-04-20T08:49:04.095Z,10.43
2023-04-20T08:51:32.587Z,11.05
2023-04-20T08:54:05.844Z,9.48
2023-04-20T08:56:37.749Z,11.00
2023-04-20T08:59:10.415Z,9.77
2023-04-20T09:01:39.422Z,9.13
2023-04-20T09:04:39.311Z,8.57
2023-04-20T09:07:07.248Z,8.23
2023-04-20T09:09:33.801Z,9.05
2023-04-20T09:12:06.775Z,10.70
2023-04-20T09:14:47.457Z,9.02
2023-04-20T09:17:16.042Z,9.40
2023-04-20T09:19:46.585Z,9.93
2023-04-20T09:22:13.482Z,9.65
2023-04-20T09:24:41.307Z,8.83
2023-04-20T09:27:18.284Z,8.07
2023-04-20T09:29:57.639Z,9.63
2023-04-20T09:32:25.434Z,10.15
2023-04-20T09:34:52.097Z,8.98
2023-04-20T09:37:18.726Z,10.83
2023-04-20T09:39:46.682Z,10.10
2023-04-20T09:42:15.025Z,11.52
2023-04-20T09:44:42.742Z,8.43
2023-04-20T09:47:21.213Z,10.00
2023-04-20T09:49:48.210Z,8.53
2023-04-20T09:52:18.715Z,11.00
2023-04-20T09:54:46.257Z,11.07
2023-04-20T09:57:14.432Z,9.23
2023-04-20T09:59:46.941Z,9.10
2023-04-20T10:02:14.087Z,9.10
2023-04-20T10:05:01.316Z,10.88
2023-04-20T10:07:31.881Z,9.80
2023-04-20T10:10:16.060Z,11.02
2023-04-20T10:13:00.816Z,11.80
2023-04-20T10:15:41.373Z,9.30
2023-04-20T10:18:20.449Z,9.73
2023-04-20T10:20:47.425Z,9.65
2023-04-20T10:23:18.671Z,8.80
2023-04-20T10:26:00.683Z,10.40
2023-04-20T10:28:41.619Z,9.10
2023-04-20T10:31:08.937Z,9.48
2023-04-20T10:33:35.665Z,10.68
2023-04-20T10:36:02.272Z,9.68
2023-04-20T10:38:30.226Z,9.98
2023-04-20T10:40:57.050Z,9.63
2023-04-20T10:43:23.694Z,9.70
2023-04-20T10:45:50.980Z,9.48
2023-04-20T10:48:18.402Z,8.75
2023-04-20T10:50:45.984Z,10.18
2023-04-20T10:53:20.815Z,11.40
2023-04-20T10:55:48.038Z,11.05
2023-04-20T10:58:24.587Z,10.20
2023-04-20T11:01:01.266Z,9.95
2023-04-20T11:03:29.595Z,10.38
2023-04-20T11:06:01.012Z,9.97
2023-04-20T11:08:40.999Z,10.38
2023-04-20T11:11:24.870Z,8.38
2023-04-20T11:13:51.958Z,11.25
2023-04-20T11:16:19.185Z,10.40
2023-04-20T11:18:54.677Z,10.47
2023-04-20T11:21:22.583Z,10.27
2023-04-20T11:23:50.267Z,11.20
2023-04-20T11:26:17.096Z,8.55
2023-04-20T11:28:56.613Z,9.02
2023-04-20T11:31:23.665Z,10.77
2023-04-20T11:33:50.582Z,11.68
2023-04-20T11:36:26.470Z,11.52
2023-04-20T11:38:52.973Z,11.82
2023-04-20T11:41:19.620Z,10.70
2023-04-20T11:43:46.359Z,10.17
2023-04-20T11:46:18.096Z,11.18
2023-04-20T11:48:45.974Z,11.82
2023-04-20T11:51:13.825Z,9.45
2023-04-20T11:53:41.474Z,10.45
2023-04-20T11:56:08.934Z,10.90
2023-04-20T11:58:36.309Z,9.60
2023-04-20T12:01:02.977Z,8.48
2023-04-20T12:03:29.703Z,10.02
2023-04-20T12:05:56.575Z,11.02
2023-04-20T12:08:24.666Z,8.53
2023-04-20T12:10:51.524Z,9.60
2023-04-20T12:13:18.163Z,9.57
2023-04-20T12:15:44.992Z,8.93
2023-04-20T12:18:11.813Z,8.65
2023-04-20T12:20:38.463Z,8.67
2023-04-20T12:23:05.126Z,8.85
2023-04-20T12:25:32.186Z,8.40
2023-04-20T12:27:58.833Z,9.90
2023-04-20T12:30:25.474Z,10.75
2023-04-20T12:32:52.164Z,11.73
2023-04-20T12:35:18.791Z,10.68
2023-04-20T12:37:45.353Z,9.13
2023-04-20T12:40:12.161Z,11.25
2023-04-20T12:42:38.959Z,10.30
2023-04-20T12:45:05.986Z,11.33
2023-04-20T12:47:32.601Z,11.45
2023-04-20T12:49:59.249Z,10.05
2023-04-20T12:52:26.028Z,9.60
2023-04-20T12:54:52.682Z,10.27
2023-04-20T12:57:19.259Z,8.10
2023-04-20T12:59:48.582Z,8.98
2023-04-20T13:02:15.319Z,10.38
2023-04-20T13:04:42.103Z,8.88
2023-04-20T13:07:08.893Z,9.43
2023-04-20T13:09:35.558Z,8.30
2023-04-20T13:12:02.948Z,8.38
2023-04-20T13:14:29.554Z,9.65
2023-04-20T13:16:56.204Z,9.75
2023-04-20T13:19:23.137Z,10.45
2023-04-20T13:21:49.733Z,7.83
2023-04-20T13:24:16.556Z,8.77
2023-04-20T13:26:43.345Z,8.07
2023-04-20T13:29:09.918Z,8.52
2023-04-20T13:31:37.477Z,9.65
2023-04-20T13:34:04.198Z,9.90
2023-04-20T13:36:31.805Z,8.90
2023-04-20T13:38:59.053Z,9.35
2023-04-20T13:41:25.790Z,9.43
2023-04-20T13:43:52.447Z,9.93
2023-04-20T13:46:20.082Z,8.87
2023-04-20T13:48:46.862Z,9.52
2023-04-20T13:51:13.477Z,9.15
2023-04-20T13:53:40.199Z,7.38
2023-04-20T13:56:07.041Z,9.40
2023-04-20T13:58:33.740Z,8.43
2023-04-20T14:01:00.458Z,9.65
2023-04-20T14:03:27.185Z,12.52
2023-04-20T14:05:54.023Z,9.48
2023-04-20T14:08:23.266Z,9.00
2023-04-20T14:10:49.855Z,9.30
2023-04-20T14:13:16.541Z,9.32
2023-04-20T14:15:43.344Z,10.60
2023-04-20T14:18:09.981Z,9.50
2023-04-20T14:20:36.701Z,11.65
2023-04-20T14:23:03.534Z,10.53
2023-04-20T14:25:30.440Z,9.90
2023-04-20T14:27:57.363Z,11.55
2023-04-20T14:30:24.561Z,10.43
2023-04-20T14:32:57.983Z,9.90
2023-04-20T14:35:26.486Z,9.60
2023-04-20T14:37:53.401Z,10.52
2023-04-20T14:40:20.696Z,8.50
2023-04-20T14:42:47.495Z,9.60
2023-04-20T14:45:14.077Z,9.70
2023-04-20T14:47:44.127Z,8.10
2023-04-20T14:50:11.109Z,9.90
2023-04-20T14:52:37.723Z,9.27
2023-04-20T14:55:04.651Z,8.82
2023-04-20T14:57:31.566Z,8.73
2023-04-20T14:59:58.207Z,8.93
2023-04-20T15:02:25.002Z,9.77
2023-04-20T15:04:52.177Z,10.48
2023-04-20T15:07:19.161Z,10.20
2023-04-20T15:09:46.319Z,9.68
2023-04-20T15:12:12.863Z,10.50
2023-04-20T15:14:39.439Z,10.00
2023-04-20T15:17:06.100Z,12.13
2023-04-20T15:19:32.837Z,9.82
2023-04-20T15:21:59.419Z,11.82
2023-04-20T15:24:26.011Z,9.63
2023-04-20T15:26:52.671Z,10.05
2023-04-20T15:29:19.249Z,11.00
2023-04-20T15:31:46.810Z,8.25
2023-04-20T15:34:15.398Z,9.23
2023-04-20T15:36:43.511Z,8.97
2023-04-20T15:39:10.243Z,10.63
2023-04-20T15:41:36.836Z,9.85
2023-04-20T15:44:03.554Z,9.65
2023-04-20T15:46:30.211Z,9.65
2023-04-20T15:48:57.112Z,9.37
2023-04-20T15:51:24.792Z,8.77
2023-04-20T15:53:52.673Z,8.15
2023-04-20T15:56:21.956Z,9.25
2023-04-20T15:58:49.453Z,7.63
2023-04-20T16:01:17.813Z,7.57
2023-04-20T16:03:46.196Z,8.43
2023-04-20T16:06:13.834Z,8.60
2023-04-20T16:08:41.352Z,9.05
2023-04-20T16:11:08.295Z,7.65
2023-04-20T16:13:36.368Z,7.23
2023-04-20T16:16:03.020Z,6.97
2023-04-20T16:18:30.218Z,7.30
2023-04-20T16:20:56.906Z,7.10
2023-04-20T16:23:23.896Z,7.95
2023-04-20T16:25:50.920Z,6.27
2023-04-20T16:28:17.510Z,8.23
2023-04-20T16:30:44.545Z,8.70
2023-04-20T16:33:11.317Z,7.25
2023-04-20T16:35:37.898Z,8.15
2023-04-20T16:38:04.428Z,7.30
2023-04-20T16:40:31.229Z,7.80
2023-04-20T16:42:57.872Z,7.28
2023-04-20T16:45:24.495Z,12.05
2023-04-20T16:47:51.386Z,22.30
2023-04-20T16:50:20.438Z,7.37
2023-04-20T16:52:47.871Z,7.07
2023-04-20T16:55:14.762Z,5.97
2023-04-20T16:57:42.077Z,5.55
2023-04-20T17:00:10.543Z,7.00
2023-04-20T17:02:38.064Z,6.57
2023-04-20T17:05:06.077Z,6.97
2023-04-20T17:07:32.752Z,5.97
2023-04-20T17:10:00.148Z,5.70
2023-04-20T17:12:26.786Z,5.95
2023-04-20T17:14:55.328Z,5.37
2023-04-20T17:17:22.075Z,5.13
2023-04-20T17:19:48.750Z,5.97
2023-04-20T17:22:15.723Z,6.65
2023-04-20T17:24:42.228Z,7.05
2023-04-20T17:27:08.908Z,6.77
2023-04-20T17:29:38.297Z,7.18
2023-04-20T17:32:05.884Z,6.85
2023-04-20T17:34:33.038Z,6.75
2023-04-20T17:36:59.680Z,6.47
2023-04-20T17:39:26.670Z,6.23
2023-04-20T17:41:53.344Z,8.25
2023-04-20T17:44:20.746Z,6.70
2023-04-20T17:46:51.079Z,6.18
2023-04-20T17:49:17.745Z,6.72
2023-04-20T17:51:44.346Z,6.67
2023-04-20T17:54:11.368Z,7.88
2023-04-20T17:56:38.062Z,11.95
2023-04-20T17:59:06.311Z,9.27
2023-04-20T18:01:35.726Z,9.20
2023-04-20T18:04:03.309Z,8.10
2023-04-20T18:06:30.658Z,7.40
2023-04-20T18:08:58.187Z,5.28
2023-04-20T18:11:24.947Z,5.72
2023-04-20T18:13:51.711Z,5.50
2023-04-20T18:16:18.415Z,4.03
2023-04-20T18:18:45.236Z,3.70
2023-04-20T18:21:14.037Z,3.97
2023-04-20T18:23:41.059Z,6.05
2023-04-20T18:26:10.219Z,3.33
2023-04-20T18:28:36.900Z,2.67
2023-04-20T18:31:03.502Z,2.75
2023-04-20T18:33:30.333Z,14.88
2023-04-20T18:35:56.892Z,3.75
2023-04-20T18:38:23.410Z,2.70
2023-04-20T18:40:50.022Z,2.40
2023-04-20T18:43:16.611Z,2.70
2023-04-20T18:45:43.227Z,2.72
2023-04-20T18:48:09.830Z,2.80
2023-04-20T18:50:37.229Z,2.90
2023-04-20T18:53:05.099Z,2.73
2023-04-20T18:55:32.034Z,2.80
2023-04-20T18:57:58.937Z,3.22
2023-04-20T19:00:25.823Z,2.80
2023-04-20T19:02:52.661Z,3.78
2023-04-20T19:05:19.476Z,3.57
2023-04-20T19:07:47.005Z,4.07
2023-04-20T19:10:13.670Z,4.00
2023-04-20T19:12:40.469Z,3.90
2023-04-20T19:15:08.847Z,3.60
2023-04-20T19:17:36.277Z,4.23
2023-04-20T19:20:04.228Z,3.28
2023-04-20T19:22:30.851Z,4.68
2023-04-20T19:24:57.468Z,3.97
2023-04-20T19:27:24.191Z,3.70
2023-04-20T19:29:52.372Z,3.07
2023-04-20T19:32:19.264Z,2.92
2023-04-20T19:34:46.795Z,3.30
2023-04-20T19:37:13.535Z,2.90
2023-04-20T19:39:40.188Z,3.42
2023-04-20T19:42:07.754Z,2.93
2023-04-20T19:44:35.783Z,2.20
2023-04-20T19:47:02.351Z,2.45
2023-04-20T19:49:29.041Z,2.40
2023-04-20T19:51:55.966Z,2.30
2023-04-20T19:54:23.036Z,2.40
2023-04-20T19:56:49.658Z,2.35
2023-04-20T19:59:16.558Z,2.70
2023-04-20T20:01:43.525Z,2.78
2023-04-20T20:04:10.286Z,2.58
2023-04-20T20:06:37.055Z,2.70
2023-04-20T20:09:06.224Z,3.13
2023-04-20T20:11:33.339Z,2.70
2023-04-20T20:14:00.121Z,2.45
2023-04-20T20:16:29.255Z,2.03
2023-04-20T20:18:55.942Z,2.60
2023-04-20T20:21:22.539Z,2.30
2023-04-20T20:23:49.149Z,2.38
2023-04-20T20:26:15.922Z,2.30
2023-04-20T20:28:42.557Z,2.50
2023-04-20T20:31:09.174Z,2.50
2023-04-20T20:33:35.847Z,2.22
2023-04-20T20:36:04.241Z,2.28
2023-04-20T20:38:31.090Z,2.47
2023-04-20T20:40:58.628Z,2.72
2023-04-20T20:43:25.336Z,2.30
2023-04-20T20:45:52.351Z,2.20
2023-04-20T20:48:18.875Z,2.22
2023-04-20T20:50:45.397Z,2.20
2023-04-20T20:53:12.062Z,2.30
2023-04-20T20:55:38.575Z,2.33
2023-04-20T20:58:05.145Z,2.03
2023-04-20T21:00:33.350Z,2.53
2023-04-20T21:03:01.264Z,2.30
2023-04-20T21:05:28.014Z,2.65
2023-04-20T21:07:54.580Z,2.20
2023-04-20T21:10:21.208Z,2.72
2023-04-20T21:12:47.824Z,5.00
2023-04-20T21:15:14.473Z,3.75
2023-04-20T21:17:41.259Z,2.83
2023-04-20T21:20:09.387Z,2.67
2023-04-20T21:22:36.098Z,2.70
2023-04-20T21:25:04.105Z,2.50
2023-04-20T21:27:31.067Z,2.70
2023-04-20T21:29:57.694Z,3.15
2023-04-20T21:32:24.368Z,2.27
2023-04-20T21:34:51.698Z,2.90
2023-04-20T21:37:18.552Z,3.30
2023-04-20T21:39:45.210Z,3.03
2023-04-20T21:42:11.818Z,3.50
2023-04-20T21:44:38.431Z,3.60
2023-04-20T21:47:05.066Z,3.65
2023-04-20T21:49:31.808Z,3.80
2023-04-20T21:51:58.442Z,4.43
2023-04-20T21:54:25.181Z,4.15
2023-04-20T21:56:51.694Z,3.70
2023-04-20T21:59:18.456Z,4.68
2023-04-20T22:01:45.447Z,6.13
2023-04-20T22:04:12.118Z,4.45
2023-04-20T22:06:38.791Z,4.63
2023-04-20T22:09:05.374Z,4.60
2023-04-20T22:11:36.288Z,4.60
2023-04-20T22:14:04.296Z,4.85
2023-04-20T22:16:33.813Z,4.53
2023-04-20T22:19:01.038Z,4.57
2023-04-20T22:21:28.239Z,4.73
2023-04-20T22:23:55.355Z,4.20
2023-04-20T22:26:21.919Z,4.60
2023-04-20T22:28:48.560Z,4.43
2023-04-20T22:31:15.234Z,4.20
2023-04-20T22:33:42.056Z,4.10
2023-04-20T22:36:09.154Z,3.90
2023-04-20T22:38:36.615Z,4.15
2023-04-20T22:41:03.428Z,4.43
2023-04-20T22:43:30.041Z,4.93
2023-04-20T22:45:56.713Z,4.40
2023-04-20T22:48:23.270Z,4.75
2023-04-20T22:50:49.848Z,4.50
2023-04-20T22:53:16.601Z,4.25
2023-04-20T22:55:43.237Z,4.28
2023-04-20T22:58:09.926Z,4.40
2023-04-20T23:00:36.512Z,4.20
2023-04-20T23:03:03.318Z,4.28
2023-04-20T23:05:30.088Z,5.22
2023-04-20T23:07:56.740Z,6.05
2023-04-20T23:10:28.383Z,5.87
2023-04-20T23:12:55.528Z,6.75
2023-04-20T23:15:22.659Z,6.40
2023-04-20T23:17:50.710Z,6.50
2023-04-20T23:20:17.510Z,5.88
2023-04-20T23:22:44.158Z,5.13
2023-04-20T23:25:10.995Z,4.30
2023-04-20T23:27:37.505Z,4.80
2023-04-20T23:30:04.612Z,4.72
2023-04-20T23:32:31.364Z,5.10
2023-04-20T23:34:57.961Z,4.57
2023-04-20T23:37:24.498Z,5.00
2023-04-20T23:39:51.022Z,5.20
2023-04-20T23:42:17.562Z,5.05
2023-04-20T23:44:44.109Z,4.90
2023-04-20T23:47:10.684Z,4.60
2023-04-20T23:49:37.410Z,4.72
2023-04-20T23:52:04.094Z,4.47
2023-04-20T23:54:32.615Z,4.75
2023-04-20T23:56:59.975Z,4.13
2023-04-20T23:59:26.788Z,4.33
